createdAt,value
2022-10-29T00:00:09.894Z,3.72
2022-10-29T00:02:36.793Z,4.10
2022-10-29T00:05:03.994Z,3.83
2022-10-29T00:07:30.864Z,3.05
2022-10-29T00:09:57.706Z,2.67
2022-10-29T00:12:27.783Z,3.63
2022-10-29T00:14:54.654Z,3.13
2022-10-29T00:17:26.071Z,3.78
2022-10-29T00:19:52.931Z,2.75
2022-10-29T00:22:22.797Z,3.42
2022-10-29T00:24:51.892Z,3.03
2022-10-29T00:27:18.754Z,3.25
2022-10-29T00:29:50.205Z,2.83
2022-10-29T00:32:19.298Z,3.53
2022-10-29T00:34:46.222Z,3.00
2022-10-29T00:37:17.571Z,3.22
2022-10-29T00:39:46.912Z,2.90
2022-10-29T00:42:16.116Z,3.28
2022-10-29T00:44:45.723Z,3.58
2022-10-29T00:47:34.438Z,2.90
2022-10-29T00:50:07.199Z,3.60
2022-10-29T00:52:40.042Z,3.58
2022-10-29T00:55:15.427Z,3.53
2022-10-29T00:57:52.551Z,3.65
2022-10-29T01:00:25.118Z,3.33
2022-10-29T01:02:52.002Z,3.58
2022-10-29T01:05:25.060Z,2.97
2022-10-29T01:07:54.946Z,2.75
2022-10-29T01:10:33.232Z,3.45
2022-10-29T01:13:47.841Z,2.90
2022-10-29T01:16:35.914Z,3.08
2022-10-29T01:19:40.291Z,2.72
2022-10-29T01:22:19.708Z,2.97
2022-10-29T01:24:49.219Z,2.53
2022-10-29T01:27:42.061Z,2.50
2022-10-29T01:30:21.036Z,2.10
2022-10-29T01:33:29.535Z,2.40
2022-10-29T01:36:19.202Z,2.25
2022-10-29T01:39:40.245Z,2.70
2022-10-29T01:42:33.734Z,2.40
2022-10-29T01:45:18.489Z,2.10
2022-10-29T01:47:57.026Z,2.35
2022-10-29T01:50:25.626Z,2.50
2022-10-29T01:52:54.969Z,2.45
2022-10-29T01:55:31.110Z,2.30
2022-10-29T01:58:01.259Z,2.60
2022-10-29T02:00:38.927Z,2.45
2022-10-29T02:03:31.697Z,2.42
2022-10-29T02:06:20.198Z,2.78
2022-10-29T02:08:59.176Z,2.80
2022-10-29T02:11:37.310Z,2.80
2022-10-29T02:14:45.666Z,2.60
2022-10-29T02:17:12.490Z,2.33
2022-10-29T02:19:39.411Z,2.22
2022-10-29T02:22:06.325Z,2.60
2022-10-29T02:24:35.250Z,2.55
2022-10-29T02:27:02.156Z,2.42
2022-10-29T02:29:31.065Z,2.60
2022-10-29T02:31:58.071Z,2.40
2022-10-29T02:34:24.950Z,2.33
2022-10-29T02:36:52.021Z,2.75
2022-10-29T02:39:18.835Z,2.83
2022-10-29T02:41:45.742Z,2.60
2022-10-29T02:44:12.567Z,2.92
2022-10-29T02:46:42.477Z,2.50
2022-10-29T02:49:09.875Z,2.35
2022-10-29T02:51:36.734Z,2.25
2022-10-29T02:54:05.956Z,2.63
2022-10-29T02:56:32.806Z,2.30
2022-10-29T02:59:03.411Z,2.38
2022-10-29T03:01:34.844Z,2.30
2022-10-29T03:04:01.783Z,2.53
2022-10-29T03:06:29.054Z,2.40
2022-10-29T03:08:55.861Z,2.33
2022-10-29T03:11:22.684Z,2.45
2022-10-29T03:13:49.561Z,2.55
2022-10-29T03:16:16.429Z,2.50
2022-10-29T03:18:45.782Z,2.85
2022-10-29T03:21:12.750Z,2.58
2022-10-29T03:23:39.645Z,2.17
2022-10-29T03:26:06.532Z,2.45
2022-10-29T03:28:33.515Z,2.67
2022-10-29T03:31:00.388Z,2.53
2022-10-29T03:33:29.552Z,2.42
2022-10-29T03:36:01.526Z,2.70
2022-10-29T03:38:29.131Z,2.83
2022-10-29T03:40:56.068Z,2.90
2022-10-29T03:43:23.296Z,2.72
2022-10-29T03:45:54.399Z,2.38
2022-10-29T03:48:22.518Z,2.90
2022-10-29T03:51:01.574Z,2.50
2022-10-29T03:53:34.092Z,2.58
2022-10-29T03:56:01.532Z,2.42
2022-10-29T03:58:28.995Z,2.10
2022-10-29T04:01:00.947Z,2.08
2022-10-29T04:03:31.489Z,2.80
2022-10-29T04:06:00.925Z,2.42
2022-10-29T04:08:30.388Z,2.47
2022-10-29T04:10:57.269Z,2.65
2022-10-29T04:13:24.112Z,2.58
2022-10-29T04:15:55.213Z,2.30
2022-10-29T04:18:24.795Z,2.40
2022-10-29T04:29:15.704Z,2.65
2022-10-29T04:31:42.860Z,2.60
2022-10-29T04:34:09.847Z,3.20
2022-10-29T04:36:36.870Z,2.78
2022-10-29T04:39:04.403Z,3.05
2022-10-29T04:41:31.301Z,2.45
2022-10-29T04:43:58.375Z,3.13
2022-10-29T04:46:25.277Z,2.80
2022-10-29T04:48:52.132Z,2.92
2022-10-29T04:51:26.902Z,3.05
2022-10-29T04:53:53.875Z,3.10
2022-10-29T04:56:20.892Z,2.80
2022-10-29T04:58:51.247Z,2.88
2022-10-29T05:01:18.603Z,2.90
2022-10-29T05:03:48.630Z,2.70
2022-10-29T05:06:21.551Z,2.58
2022-10-29T05:08:48.449Z,2.40
2022-10-29T05:11:15.344Z,2.83
2022-10-29T05:13:42.316Z,2.50
2022-10-29T05:16:11.759Z,3.20
2022-10-29T05:18:39.720Z,2.83
2022-10-29T05:21:07.034Z,2.80
2022-10-29T05:23:34.232Z,3.20
2022-10-29T05:26:01.255Z,3.30
2022-10-29T05:28:30.853Z,3.25
2022-10-29T05:31:02.512Z,2.85
2022-10-29T05:33:31.990Z,3.15
2022-10-29T05:36:04.734Z,2.75
2022-10-29T05:38:32.163Z,3.20
2022-10-29T05:40:59.891Z,3.28
2022-10-29T05:43:27.296Z,2.38
2022-10-29T05:45:54.530Z,2.00
2022-10-29T05:48:21.671Z,2.30
2022-10-29T05:50:48.610Z,2.20
2022-10-29T05:53:18.100Z,2.33
2022-10-29T05:55:45.000Z,2.10
2022-10-29T05:58:14.227Z,2.05
2022-10-29T06:00:44.312Z,1.90
2022-10-29T06:03:22.431Z,2.38
2022-10-29T06:05:51.621Z,2.38
2022-10-29T06:08:19.125Z,2.10
2022-10-29T06:10:46.074Z,2.00
2022-10-29T06:13:17.943Z,1.75
2022-10-29T06:15:46.595Z,1.73
2022-10-29T06:18:14.074Z,2.05
2022-10-29T06:20:43.584Z,2.25
2022-10-29T06:23:11.502Z,1.90
2022-10-29T06:25:38.521Z,2.10
2022-10-29T06:28:09.459Z,1.77
2022-10-29T06:30:37.101Z,1.88
2022-10-29T06:33:07.774Z,2.03
2022-10-29T06:38:09.319Z,2.47
2022-10-29T06:40:38.121Z,2.30
2022-10-29T06:43:12.944Z,2.00
2022-10-29T06:45:40.132Z,2.20
2022-10-29T06:48:09.814Z,2.65
2022-10-29T06:50:36.869Z,2.20
2022-10-29T06:53:12.220Z,2.38
2022-10-29T06:55:41.805Z,2.40
2022-10-29T06:58:12.887Z,2.03
2022-10-29T07:00:43.775Z,1.92
2022-10-29T07:03:14.493Z,2.30
2022-10-29T07:05:41.807Z,1.87
2022-10-29T07:08:09.087Z,2.08
2022-10-29T07:10:36.782Z,1.58
2022-10-29T07:13:06.683Z,1.92
2022-10-29T07:15:36.141Z,1.80
2022-10-29T07:18:08.792Z,1.88
2022-10-29T07:20:42.688Z,1.90
2022-10-29T07:23:17.504Z,2.03
2022-10-29T07:25:46.901Z,2.08
2022-10-29T07:28:23.161Z,2.40
2022-10-29T07:30:51.639Z,3.13
2022-10-29T07:33:23.510Z,2.40
2022-10-29T07:35:51.908Z,2.05
2022-10-29T07:38:19.145Z,2.28
2022-10-29T07:40:52.096Z,2.42
2022-10-29T07:43:20.646Z,2.20
2022-10-29T07:45:51.781Z,2.35
2022-10-29T07:48:24.603Z,1.98
2022-10-29T07:50:51.574Z,1.83
2022-10-29T07:53:21.197Z,2.35
2022-10-29T07:55:56.334Z,2.25
2022-10-29T07:58:24.377Z,1.98
2022-10-29T08:00:59.188Z,2.45
2022-10-29T08:03:26.059Z,2.50
2022-10-29T08:05:57.092Z,2.30
2022-10-29T08:08:24.912Z,2.20
2022-10-29T08:10:52.925Z,2.10
2022-10-29T08:13:19.907Z,2.53
2022-10-29T08:15:47.206Z,2.47
2022-10-29T08:18:20.736Z,2.17
2022-10-29T08:20:50.094Z,2.45
2022-10-29T08:23:17.189Z,2.38
2022-10-29T08:25:44.764Z,2.70
2022-10-29T08:28:19.534Z,2.53
2022-10-29T08:30:50.714Z,2.10
2022-10-29T08:33:18.349Z,2.38
2022-10-29T08:35:45.155Z,2.20
2022-10-29T08:38:14.357Z,2.15
2022-10-29T08:41:05.404Z,2.00
2022-10-29T08:44:17.403Z,2.40
2022-10-29T08:46:54.813Z,2.47
2022-10-29T08:49:49.911Z,2.40
2022-10-29T08:52:25.509Z,2.80
2022-10-29T08:55:19.782Z,2.15
2022-10-29T08:57:58.571Z,2.20
2022-10-29T09:00:36.844Z,2.33
2022-10-29T09:03:10.339Z,1.98
2022-10-29T09:05:49.524Z,2.80
2022-10-29T09:08:32.312Z,2.25
2022-10-29T09:11:23.661Z,2.20
2022-10-29T09:13:59.224Z,2.22
2022-10-29T09:16:37.869Z,2.88
2022-10-29T09:19:14.666Z,2.33
2022-10-29T09:21:59.862Z,2.97
2022-10-29T09:24:49.718Z,4.07
2022-10-29T09:27:57.176Z,3.05
2022-10-29T09:30:24.385Z,3.00
2022-10-29T09:33:05.036Z,3.15
2022-10-29T09:35:46.454Z,3.25
2022-10-29T09:38:31.534Z,2.92
2022-10-29T09:41:01.043Z,3.03
2022-10-29T09:43:46.045Z,3.17
2022-10-29T09:46:42.175Z,2.75
2022-10-29T09:49:20.892Z,2.80
2022-10-29T09:51:54.490Z,2.95
2022-10-29T09:54:23.561Z,3.40
2022-10-29T09:56:54.917Z,4.00
2022-10-29T09:59:31.444Z,4.85
2022-10-29T10:02:04.066Z,7.40
2022-10-29T10:04:47.718Z,9.30
2022-10-29T10:07:20.888Z,9.63
2022-10-29T10:10:01.769Z,9.10
2022-10-29T10:12:37.657Z,9.35
2022-10-29T10:15:29.807Z,9.18
2022-10-29T10:18:25.978Z,9.27
2022-10-29T10:21:08.925Z,5.75
2022-10-29T10:23:46.870Z,5.63
2022-10-29T10:26:55.089Z,5.20
2022-10-29T10:29:24.086Z,5.70
2022-10-29T10:32:21.666Z,4.07
2022-10-29T10:34:49.731Z,3.15
2022-10-29T10:37:22.221Z,4.07
2022-10-29T10:39:55.034Z,4.00
2022-10-29T10:42:34.322Z,3.97
2022-10-29T10:45:15.822Z,3.67
2022-10-29T10:50:32.723Z,3.10
2022-10-29T10:53:06.878Z,3.35
2022-10-29T10:55:38.751Z,3.95
2022-10-29T10:58:25.338Z,3.58
2022-10-29T11:01:01.378Z,2.90
2022-10-29T11:03:36.467Z,3.20
2022-10-29T11:06:43.008Z,3.03
2022-10-29T11:09:26.794Z,2.50
2022-10-29T11:12:24.367Z,2.78
2022-10-29T11:15:09.713Z,2.88
2022-10-29T11:17:50.038Z,2.80
2022-10-29T11:20:47.463Z,3.40
2022-10-29T11:23:27.472Z,3.40
2022-10-29T11:26:07.910Z,3.28
2022-10-29T11:29:22.125Z,3.22
2022-10-29T11:32:30.202Z,2.78
2022-10-29T11:35:08.859Z,2.17
2022-10-29T11:38:08.736Z,2.03
2022-10-29T11:40:45.740Z,2.30
2022-10-29T11:43:14.286Z,2.92
2022-10-29T11:46:20.529Z,2.03
2022-10-29T11:49:28.977Z,2.47
2022-10-29T11:52:27.215Z,2.88
2022-10-29T11:55:29.003Z,2.17
2022-10-29T11:58:26.174Z,2.13
2022-10-29T12:01:16.120Z,1.90
2022-10-29T12:04:24.011Z,2.42
2022-10-29T12:07:00.157Z,2.45
2022-10-29T12:10:09.144Z,2.22
2022-10-29T12:13:17.400Z,3.05
2022-10-29T12:16:24.659Z,2.20
2022-10-29T12:19:35.015Z,1.65
2022-10-29T12:22:15.384Z,2.58
2022-10-29T12:25:19.272Z,1.98
2022-10-29T12:28:26.897Z,2.70
2022-10-29T12:31:28.324Z,2.65
2022-10-29T12:34:22.079Z,1.83
2022-10-29T12:37:22.401Z,2.20
2022-10-29T12:39:57.245Z,1.75
2022-10-29T12:42:30.755Z,1.58
2022-10-29T12:45:14.461Z,2.20
2022-10-29T12:47:55.485Z,2.00
2022-10-29T12:50:39.347Z,2.78
2022-10-29T12:53:43.832Z,1.92
2022-10-29T12:56:16.237Z,2.20
2022-10-29T12:58:57.149Z,2.10
2022-10-29T13:01:49.914Z,2.07
2022-10-29T13:04:27.208Z,2.50
2022-10-29T13:07:05.057Z,2.35
2022-10-29T13:09:38.163Z,2.10
2022-10-29T13:12:12.191Z,2.17
2022-10-29T13:14:55.978Z,2.22
2022-10-29T13:17:34.851Z,2.10
2022-10-29T13:20:25.245Z,2.08
2022-10-29T13:22:56.861Z,2.40
2022-10-29T13:25:38.708Z,5.10
2022-10-29T13:28:08.561Z,3.33
2022-10-29T13:30:41.227Z,3.20
2022-10-29T13:33:26.549Z,3.25
2022-10-29T13:35:57.031Z,1.98
2022-10-29T13:39:04.293Z,2.00
2022-10-29T13:41:42.780Z,2.53
2022-10-29T13:44:16.209Z,2.05
2022-10-29T13:47:04.276Z,2.60
2022-10-29T13:49:39.834Z,2.50
2022-10-29T13:52:17.214Z,2.00
2022-10-29T13:55:21.519Z,1.85
2022-10-29T13:58:35.175Z,2.13
2022-10-29T14:01:11.860Z,5.28
2022-10-29T14:04:03.757Z,5.07
2022-10-29T14:06:38.075Z,4.78
2022-10-29T14:09:28.393Z,4.88
2022-10-29T14:12:03.400Z,4.63
2022-10-29T14:14:37.447Z,4.68
2022-10-29T14:17:31.623Z,4.55
2022-10-29T14:20:00.857Z,2.75
2022-10-29T14:22:41.682Z,2.72
2022-10-29T14:25:51.435Z,2.20
2022-10-29T14:28:27.993Z,2.67
2022-10-29T14:31:06.193Z,2.55
2022-10-29T14:33:40.456Z,2.40
2022-10-29T14:36:20.289Z,2.80
2022-10-29T14:39:23.824Z,2.30
2022-10-29T14:41:56.573Z,1.90
2022-10-29T14:44:31.369Z,2.05
2022-10-29T14:47:23.605Z,2.40
2022-10-29T14:49:52.635Z,2.22
2022-10-29T14:52:39.993Z,2.15
2022-10-29T14:55:16.721Z,1.75
2022-10-29T14:57:52.698Z,2.53
2022-10-29T15:00:32.076Z,2.38
2022-10-29T15:02:59.547Z,2.30
2022-10-29T15:05:36.046Z,2.90
2022-10-29T15:08:11.845Z,2.08
2022-10-29T15:10:56.896Z,2.60
2022-10-29T15:13:29.983Z,2.28
2022-10-29T15:16:16.240Z,3.58
2022-10-29T15:18:53.447Z,2.95
2022-10-29T15:21:29.526Z,3.65
2022-10-29T15:24:09.678Z,4.22
2022-10-29T15:26:47.400Z,3.63
2022-10-29T15:29:19.217Z,4.85
2022-10-29T15:31:50.551Z,5.57
2022-10-29T15:37:19.429Z,4.47
2022-10-29T15:40:14.759Z,3.80
2022-10-29T15:42:41.949Z,3.90
2022-10-29T15:45:08.871Z,4.60
2022-10-29T15:47:41.840Z,7.00
2022-10-29T15:50:17.690Z,6.03
2022-10-29T15:52:49.623Z,8.15
2022-10-29T15:55:30.292Z,9.20
2022-10-29T15:58:09.371Z,12.05
2022-10-29T16:00:36.215Z,12.57
2022-10-29T16:03:25.702Z,12.57
2022-10-29T16:06:05.445Z,12.02
2022-10-29T16:08:40.379Z,11.93
2022-10-29T16:11:13.487Z,8.25
2022-10-29T16:13:42.831Z,8.15
2022-10-29T16:16:20.208Z,7.20
2022-10-29T16:18:49.646Z,7.28
2022-10-29T16:21:28.579Z,7.25
2022-10-29T16:23:55.463Z,8.13
2022-10-29T16:26:25.358Z,8.43
2022-10-29T16:28:53.266Z,8.70
2022-10-29T16:31:28.598Z,8.07
2022-10-29T16:34:00.821Z,8.05
2022-10-29T16:36:27.734Z,7.93
2022-10-29T16:38:54.699Z,7.63
2022-10-29T16:41:21.821Z,6.93
2022-10-29T16:43:52.552Z,6.35
2022-10-29T16:46:19.494Z,6.13
2022-10-29T16:48:46.500Z,6.05
2022-10-29T16:51:13.654Z,4.53
2022-10-29T16:53:42.771Z,4.78
2022-10-29T16:56:12.756Z,4.75
2022-10-29T16:58:39.807Z,4.78
2022-10-29T17:01:10.428Z,4.78
2022-10-29T17:03:39.087Z,5.25
2022-10-29T17:06:10.361Z,5.15
2022-10-29T17:08:38.252Z,4.70
2022-10-29T17:11:09.933Z,4.38
2022-10-29T17:13:39.656Z,5.00
2022-10-29T17:16:10.882Z,5.47
2022-10-29T17:18:37.785Z,5.10
2022-10-29T17:21:07.200Z,5.47
2022-10-29T17:23:36.587Z,4.40
2022-10-29T17:26:03.508Z,4.32
2022-10-29T17:28:30.504Z,5.22
2022-10-29T17:30:59.430Z,4.75
2022-10-29T17:33:26.257Z,4.80
2022-10-29T17:36:12.208Z,5.47
2022-10-29T17:38:41.299Z,5.50
2022-10-29T17:41:08.567Z,5.43
2022-10-29T17:43:35.559Z,5.13
2022-10-29T17:46:02.463Z,5.45
2022-10-29T17:48:29.514Z,5.15
2022-10-29T17:51:02.400Z,4.70
2022-10-29T17:53:31.498Z,4.47
2022-10-29T17:56:03.992Z,3.90
2022-10-29T17:58:31.424Z,3.15
2022-10-29T18:01:10.271Z,3.53
2022-10-29T18:03:39.726Z,3.22
2022-10-29T18:06:10.630Z,2.72
2022-10-29T18:08:41.000Z,3.40
2022-10-29T18:11:18.731Z,2.78
2022-10-29T18:13:47.707Z,2.88
2022-10-29T18:16:26.974Z,3.13
2022-10-29T18:19:02.192Z,3.33
2022-10-29T18:21:30.892Z,2.90
2022-10-29T18:23:58.319Z,2.20
2022-10-29T18:26:37.652Z,2.33
2022-10-29T18:29:11.665Z,2.25
2022-10-29T18:31:44.931Z,2.80
2022-10-29T18:34:14.729Z,2.88
2022-10-29T18:36:45.035Z,2.72
2022-10-29T18:39:14.196Z,3.00
2022-10-29T18:41:43.386Z,3.22
2022-10-29T18:44:10.279Z,2.92
2022-10-29T18:46:37.195Z,3.92
2022-10-29T18:49:06.603Z,3.63
2022-10-29T18:51:35.730Z,3.50
2022-10-29T18:54:05.157Z,3.28
2022-10-29T18:56:32.218Z,2.60
2022-10-29T18:59:00.380Z,3.05
2022-10-29T19:01:31.731Z,3.42
2022-10-29T19:04:08.604Z,3.35
2022-10-29T19:06:37.294Z,4.15
2022-10-29T19:09:09.849Z,2.75
2022-10-29T19:11:37.005Z,3.45
2022-10-29T19:14:07.575Z,3.63
2022-10-29T19:16:35.574Z,5.68
2022-10-29T19:19:06.821Z,3.15
2022-10-29T19:21:37.989Z,3.35
2022-10-29T19:24:06.514Z,2.92
2022-10-29T19:26:35.633Z,2.95
2022-10-29T19:29:04.833Z,3.40
2022-10-29T19:31:36.139Z,3.72
2022-10-29T19:34:06.333Z,3.58
2022-10-29T19:36:35.984Z,3.67
2022-10-29T19:39:03.990Z,3.45
2022-10-29T19:41:31.049Z,3.90
2022-10-29T19:44:02.240Z,3.80
2022-10-29T19:46:32.185Z,4.10
2022-10-29T19:49:02.263Z,4.10
2022-10-29T19:51:29.223Z,3.80
2022-10-29T19:53:59.056Z,3.20
2022-10-29T19:56:28.254Z,2.97
2022-10-29T19:58:55.071Z,3.15
2022-10-29T20:01:22.019Z,3.38
2022-10-29T20:03:49.021Z,3.20
2022-10-29T20:06:16.483Z,3.20
2022-10-29T20:08:43.928Z,3.08
2022-10-29T20:11:13.615Z,3.40
2022-10-29T20:13:40.596Z,3.10
2022-10-29T20:16:16.308Z,3.30
2022-10-29T20:18:43.681Z,2.90
2022-10-29T20:21:10.643Z,3.15
2022-10-29T20:23:37.768Z,3.30
2022-10-29T20:26:05.192Z,3.30
2022-10-29T20:28:34.581Z,2.92
2022-10-29T20:31:16.724Z,3.55
2022-10-29T20:33:55.955Z,3.72
2022-10-29T20:36:24.647Z,3.30
2022-10-29T20:38:52.742Z,3.70
2022-10-29T20:41:20.843Z,3.85
2022-10-29T20:43:59.850Z,3.40
2022-10-29T20:46:27.638Z,3.63
2022-10-29T20:48:54.921Z,4.03
2022-10-29T20:51:25.768Z,3.58
2022-10-29T20:53:53.928Z,4.25
2022-10-29T20:56:23.398Z,4.13
2022-10-29T20:58:50.754Z,4.07
2022-10-29T21:01:20.898Z,3.72
2022-10-29T21:03:54.693Z,3.80
2022-10-29T21:06:24.548Z,3.67
2022-10-29T21:08:57.038Z,4.40
2022-10-29T21:11:27.098Z,3.72
2022-10-29T21:13:57.128Z,3.45
2022-10-29T21:16:27.451Z,3.90
2022-10-29T21:18:58.303Z,3.90
2022-10-29T21:21:28.719Z,4.65
2022-10-29T21:23:59.743Z,4.18
2022-10-29T21:26:28.515Z,4.38
2022-10-29T21:28:58.177Z,3.80
2022-10-29T21:31:25.639Z,3.60
2022-10-29T21:33:53.954Z,3.08
2022-10-29T21:36:22.019Z,3.53
2022-10-29T21:38:51.982Z,3.25
2022-10-29T21:41:21.326Z,3.67
2022-10-29T21:43:50.666Z,3.75
2022-10-29T21:46:20.030Z,4.13
2022-10-29T21:48:51.489Z,3.40
2022-10-29T21:51:20.879Z,4.03
2022-10-29T21:53:47.733Z,4.32
2022-10-29T21:56:15.324Z,4.07
2022-10-29T21:58:42.860Z,3.45
2022-10-29T22:01:10.849Z,3.65
2022-10-29T22:03:41.279Z,4.03
2022-10-29T22:06:18.789Z,3.95
2022-10-29T22:08:46.966Z,4.00
2022-10-29T22:11:15.493Z,3.80
2022-10-29T22:13:42.443Z,4.22
2022-10-29T22:16:13.332Z,3.83
2022-10-29T22:18:40.908Z,3.90
2022-10-29T22:21:19.647Z,4.05
2022-10-29T22:23:48.676Z,4.28
2022-10-29T22:26:17.786Z,4.80
2022-10-29T22:28:47.073Z,5.00
2022-10-29T22:31:18.346Z,4.57
2022-10-29T22:33:51.285Z,4.57
2022-10-29T22:36:22.087Z,4.63
2022-10-29T22:38:56.083Z,4.63
2022-10-29T22:41:23.671Z,4.70
2022-10-29T22:43:50.613Z,4.43
2022-10-29T22:46:21.357Z,4.30
2022-10-29T22:48:48.696Z,4.68
2022-10-29T22:51:24.779Z,4.18
2022-10-29T22:53:53.163Z,3.92
2022-10-29T22:56:21.724Z,3.78
2022-10-29T22:58:52.217Z,4.10
2022-10-29T23:01:31.225Z,3.42
2022-10-29T23:03:59.817Z,3.63
2022-10-29T23:06:28.200Z,4.03
2022-10-29T23:09:01.778Z,3.90
2022-10-29T23:11:34.937Z,3.63
2022-10-29T23:14:02.901Z,4.10
2022-10-29T23:16:34.057Z,4.43
2022-10-29T23:19:04.349Z,4.55
2022-10-29T23:21:31.573Z,3.65
2022-10-29T23:23:59.077Z,3.67
2022-10-29T23:26:29.053Z,3.63
2022-10-29T23:28:58.635Z,3.38
2022-10-29T23:31:28.995Z,3.53
2022-10-29T23:33:58.133Z,3.38
2022-10-29T23:36:27.070Z,3.95
2022-10-29T23:39:01.615Z,4.20
2022-10-29T23:41:32.608Z,3.78
2022-10-29T23:43:59.767Z,4.07
2022-10-29T23:46:26.724Z,3.85
2022-10-29T23:48:53.745Z,4.20
2022-10-29T23:51:23.066Z,4.13
2022-10-29T23:53:53.125Z,3.05
2022-10-29T23:56:25.486Z,3.80
2022-10-29T23:58:52.348Z,2.80
